Time;durP1;ratioP1;P1;durP2;ratioP2;P2;SDS_P1;SDS_P2;PMS_P1;PMS_P2;Temp;Humidity;BMP_temperature;BMP_pressure;BME280_temperature;BME280_humidity;BME280_pressure;Samples;Min_cycle;Max_cycle;Signal;HPM_P1;HPM_P2
2023/10/01 00:00:36;;;;;;;0.17;0.17;;;;;;;15.99;61.97;99314.94;4959886;28;20087;-69
2023/10/01 00:03:06;;;;;;;0.10;0.10;;;;;;;15.95;61.91;99308.44;4957793;28;20093;-69
2023/10/01 00:05:33;;;;;;;0.20;0.20;;;;;;;16.03;62.07;99320.63;4968391;28;20043;-70
2023/10/01 00:08:00;;;;;;;0.10;0.10;;;;;;;16.02;61.98;99314.28;4969690;28;20138;-69
2023/10/01 00:10:26;;;;;;;0.20;0.20;;;;;;;15.99;62.41;99320.44;4940802;28;20134;-69
2023/10/01 00:12:54;;;;;;;0.10;0.10;;;;;;;15.97;62.04;99322.72;4951394;28;20051;-69
2023/10/01 00:15:24;;;;;;;0.20;0.20;;;;;;;15.94;61.77;99306.00;4961026;28;20046;-68
2023/10/01 00:17:51;;;;;;;0.17;0.17;;;;;;;15.91;62.31;99321.22;4946913;28;20559;-70
2023/10/01 00:20:22;;;;;;;0.20;0.20;;;;;;;15.88;62.84;99308.91;4955383;28;20051;-68
2023/10/01 00:22:51;;;;;;;0.20;0.20;;;;;;;15.82;62.80;99310.16;4963194;28;20122;-68
2023/10/01 00:25:18;;;;;;;0.20;0.20;;;;;;;15.76;62.69;99302.38;4961909;28;20054;-68
2023/10/01 00:27:45;;;;;;;0.15;0.15;;;;;;;15.71;63.24;99295.09;4938520;28;20429;-68
2023/10/01 00:30:12;;;;;;;0.10;0.10;;;;;;;15.65;63.40;99307.38;4955706;28;20059;-69
2023/10/01 00:32:40;;;;;;;0.20;0.20;;;;;;;15.64;63.32;99308.50;4952403;28;20067;-70
2023/10/01 00:35:11;;;;;;;0.20;0.20;;;;;;;15.61;63.19;99304.47;4949793;28;20641;-68
2023/10/01 00:37:41;;;;;;;0.10;0.10;;;;;;;15.62;63.17;99299.75;4953869;28;20057;-69
2023/10/01 00:40:13;;;;;;;0.10;0.10;;;;;;;15.56;63.36;99294.41;4968125;28;20051;-69
2023/10/01 00:42:40;;;;;;;0.10;0.10;;;;;;;15.51;63.34;99291.78;4936123;28;20601;-70
2023/10/01 00:45:11;;;;;;;0.20;0.20;;;;;;;15.46;63.67;99291.94;4959514;28;20501;-70
2023/10/01 00:47:41;;;;;;;0.20;0.20;;;;;;;15.41;63.61;99287.38;4940975;29;20047;-69
2023/10/01 00:50:11;;;;;;;0.10;0.10;;;;;;;15.28;64.23;99286.38;4950426;28;20137;-70
2023/10/01 00:52:39;;;;;;;0.10;0.10;;;;;;;15.31;64.00;99290.47;4956193;28;20055;-71
2023/10/01 00:55:08;;;;;;;0.15;0.15;;;;;;;15.29;64.11;99284.44;4952910;28;20047;-70
2023/10/01 00:57:37;;;;;;;0.20;0.20;;;;;;;15.26;64.28;99288.66;4950961;28;20046;-71
2023/10/01 01:00:05;;;;;;;0.17;0.17;;;;;;;15.23;64.72;99283.78;4963646;28;20149;-69
2023/10/01 01:02:37;;;;;;;0.10;0.10;;;;;;;15.21;64.44;99277.75;4958487;28;20070;-70
2023/10/01 01:05:20;;;;;;;0.10;0.10;;;;;;;15.19;63.98;99281.97;4948252;28;20047;-71
2023/10/01 01:07:47;;;;;;;0.20;0.20;;;;;;;15.19;64.09;99277.28;4923935;28;20054;-68
2023/10/01 01:10:16;;;;;;;0.10;0.10;;;;;;;15.15;64.28;99277.13;4959604;28;20125;-69
2023/10/01 01:12:45;;;;;;;0.10;0.10;;;;;;;15.09;65.01;99267.38;4960115;28;20055;-69
2023/10/01 01:15:13;;;;;;;0.20;0.20;;;;;;;15.05;64.93;99274.63;4960276;28;20152;-70
2023/10/01 01:17:40;;;;;;;0.20;0.20;;;;;;;15.03;64.76;99265.88;4945949;28;20079;-70
2023/10/01 01:20:09;;;;;;;0.10;0.10;;;;;;;15.01;64.54;99260.69;4965926;28;20511;-70
2023/10/01 01:22:51;;;;;;;0.10;0.10;;;;;;;15.01;65.08;99262.66;4951216;28;20047;-70
2023/10/01 01:25:20;;;;;;;0.10;0.10;;;;;;;14.94;65.11;99265.84;4949672;28;20061;-69
2023/10/01 01:27:47;;;;;;;0.10;0.10;;;;;;;14.95;65.56;99269.41;4956904;28;20074;-70
2023/10/01 01:30:18;;;;;;;0.10;0.10;;;;;;;14.93;65.63;99271.66;4951256;28;20051;-69
2023/10/01 01:32:57;;;;;;;0.10;0.10;;;;;;;14.83;65.87;99267.25;4955520;28;20065;-68
2023/10/01 01:35:30;;;;;;;0.10;0.10;;;;;;;14.81;66.05;99267.56;4942489;28;20043;-71
2023/10/01 01:37:58;;;;;;;0.20;0.20;;;;;;;14.73;65.79;99254.59;4947659;28;20051;-70
2023/10/01 01:40:36;;;;;;;0.10;0.10;;;;;;;14.84;65.78;99261.44;4960746;28;20063;-68
2023/10/01 01:43:15;;;;;;;0.17;0.17;;;;;;;14.84;65.17;99266.13;4956682;28;20050;-69
2023/10/01 01:45:44;;;;;;;0.10;0.10;;;;;;;14.83;65.45;99254.31;4950611;28;20054;-70
2023/10/01 01:50:55;;;;;;;0.20;0.20;;;;;;;14.80;65.55;99260.44;4961672;28;20050;-70
2023/10/01 01:53:26;;;;;;;0.10;0.10;;;;;;;14.74;66.41;99261.72;4947024;28;20098;-67
2023/10/01 01:55:54;;;;;;;0.10;0.10;;;;;;;14.81;65.47;99267.56;4958640;28;20043;-69
2023/10/01 01:58:24;;;;;;;0.20;0.20;;;;;;;14.80;65.28;99260.44;4952824;28;20153;-70
2023/10/01 02:03:51;;;;;;;0.20;0.20;;;;;;;14.75;65.03;99257.81;4947547;28;20055;-70
2023/10/01 02:06:26;;;;;;;0.10;0.10;;;;;;;14.73;65.22;99249.88;4946731;28;20176;-70
2023/10/01 02:08:57;;;;;;;0.20;0.20;;;;;;;14.74;65.01;99245.19;4939863;28;20900;-68
2023/10/01 02:11:24;;;;;;;0.10;0.10;;;;;;;14.69;65.48;99246.13;4949522;28;20515;-70
2023/10/01 02:13:51;;;;;;;0.20;0.20;;;;;;;14.65;65.70;99239.63;4956796;28;20586;-68
2023/10/01 02:18:57;;;;;;;0.17;0.17;;;;;;;14.56;66.31;99238.75;4957777;28;20210;-69
2023/10/01 02:21:43;;;;;;;0.10;0.10;;;;;;;14.54;66.00;99235.50;4950141;28;20070;-69
2023/10/01 02:24:13;;;;;;;0.20;0.20;;;;;;;14.46;66.26;99237.09;4957199;28;20101;-69
2023/10/01 02:26:40;;;;;;;0.10;0.10;;;;;;;14.48;66.13;99231.28;4959940;28;20046;-70
2023/10/01 02:29:14;;;;;;;0.10;0.10;;;;;;;14.46;65.94;99237.91;4948593;28;20118;-70
2023/10/01 02:31:47;;;;;;;0.10;0.10;;;;;;;14.45;66.15;99233.53;4942949;28;20070;-68
2023/10/01 02:34:14;;;;;;;0.10;0.10;;;;;;;14.44;66.20;99239.34;4952143;28;20221;-69
2023/10/01 02:36:42;;;;;;;0.10;0.10;;;;;;;14.46;66.30;99243.41;4944017;28;20074;-71
2023/10/01 02:39:20;;;;;;;0.10;0.10;;;;;;;14.49;65.87;99246.66;4950016;28;20051;-69
2023/10/01 02:44:35;;;;;;;0.10;0.10;;;;;;;14.50;65.80;99220.78;4954200;28;20149;-70
2023/10/01 02:47:09;;;;;;;0.13;0.13;;;;;;;14.55;65.55;99226.97;4949541;28;20050;-70
2023/10/01 02:49:39;;;;;;;0.10;0.10;;;;;;;14.50;65.45;99207.81;4936148;28;20046;-69
2023/10/01 02:52:07;;;;;;;0.10;0.10;;;;;;;14.57;65.83;99221.13;4949667;28;20054;-69
2023/10/01 02:54:37;;;;;;;;;;;;;;;14.58;65.83;99217.25;4950229;28;20058;-68
2023/10/01 02:57:20;;;;;;;0.10;0.10;;;;;;;14.56;65.76;99219.50;4956016;28;19969;-70
2023/10/01 03:02:33;;;;;;;0.10;0.10;;;;;;;14.54;65.86;99208.84;4948182;28;20170;-68
2023/10/01 03:05:06;;;;;;;0.20;0.20;;;;;;;14.50;66.12;99210.56;4953780;28;20047;-68
2023/10/01 03:07:38;;;;;;;0.25;0.10;;;;;;;14.49;66.16;99208.94;4953010;28;20590;-71
2023/10/01 03:10:12;;;;;;;0.10;0.10;;;;;;;14.46;66.43;99204.09;4947542;28;20047;-68
2023/10/01 03:12:42;;;;;;;0.10;0.10;;;;;;;14.49;66.62;99205.41;4961529;28;20062;-67
2023/10/01 03:17:55;;;;;;;0.10;0.10;;;;;;;14.44;66.49;99217.34;4957636;28;20150;-69
2023/10/01 03:23:06;;;;;;;0.10;0.10;;;;;;;14.42;66.74;99217.66;4954532;28;20047;-70
2023/10/01 03:25:40;;;;;;;0.15;0.15;;;;;;;14.42;66.20;99216.84;4958443;28;20050;-70
2023/10/01 03:28:15;;;;;;;0.10;0.10;;;;;;;14.39;66.74;99203.72;4961803;28;20043;-69
2023/10/01 03:30:46;;;;;;;0.10;0.10;;;;;;;14.37;66.45;99208.75;4954867;28;20605;-69
2023/10/01 03:33:16;;;;;;;0.10;0.10;;;;;;;14.35;66.65;99205.47;4948516;28;20051;-69
2023/10/01 03:35:47;;;;;;;0.20;0.20;;;;;;;14.31;66.69;99197.06;4946609;28;20519;-69
2023/10/01 03:38:15;;;;;;;0.13;0.13;;;;;;;14.30;67.08;99192.69;4956812;28;20101;-71
2023/10/01 03:43:37;;;;;;;0.10;0.10;;;;;;;14.43;66.60;99190.97;4960684;28;20050;-70
2023/10/01 03:46:06;;;;;;;0.17;0.17;;;;;;;14.45;66.29;99195.03;4958046;28;20518;-69
2023/10/01 03:48:57;;;;;;;0.20;0.20;;;;;;;14.46;65.95;99190.34;4967675;28;20635;-70
2023/10/01 03:51:28;;;;;;;0.10;0.10;;;;;;;14.41;66.01;99179.47;4955555;28;20051;-70
2023/10/01 03:53:59;;;;;;;0.10;0.10;;;;;;;14.39;66.17;99179.78;4953389;28;20293;-69
2023/10/01 03:56:29;;;;;;;0.10;0.10;;;;;;;14.40;66.26;99178.66;4964040;28;20058;-70
2023/10/01 03:58:57;;;;;;;0.10;0.10;;;;;;;14.41;66.29;99187.72;4954595;28;20106;-70
2023/10/01 04:01:33;;;;;;;0.20;0.20;;;;;;;14.48;65.93;99182.56;4956202;28;20515;-71
2023/10/01 04:04:00;;;;;;;0.20;0.20;;;;;;;14.52;65.92;99183.59;4926953;29;20070;-70
2023/10/01 04:06:27;;;;;;;0.20;0.20;;;;;;;14.57;65.89;99175.19;4954678;28;20054;-69
2023/10/01 04:08:56;;;;;;;0.20;0.20;;;;;;;14.63;65.57;99191.53;4961136;28;20051;-71
2023/10/01 04:11:49;;;;;;;0.20;0.20;;;;;;;14.55;65.70;99176.63;4949688;28;20145;-70
2023/10/01 04:14:17;;;;;;;0.10;0.10;;;;;;;14.62;65.46;99188.00;4957894;28;20145;-69
2023/10/01 04:16:46;;;;;;;0.10;0.10;;;;;;;14.57;65.74;99188.94;4948184;28;20058;-69
2023/10/01 04:19:18;;;;;;;0.20;0.20;;;;;;;14.54;66.15;99186.81;4950979;28;20052;-68
2023/10/01 04:21:50;;;;;;;0.20;0.20;;;;;;;14.54;66.38;99189.56;4958687;28;20102;-68
2023/10/01 04:24:21;;;;;;;0.10;0.10;;;;;;;14.54;66.03;99199.75;4955409;28;20051;-68
2023/10/01 04:26:48;;;;;;;0.20;0.20;;;;;;;14.57;66.04;99174.34;4948872;28;20539;-68
2023/10/01 04:29:16;;;;;;;0.20;0.20;;;;;;;14.58;65.61;99176.81;4954240;28;20047;-68
2023/10/01 04:31:48;;;;;;;0.20;0.20;;;;;;;14.65;65.36;99192.03;4964446;28;20469;-68
2023/10/01 04:34:17;;;;;;;0.10;0.10;;;;;;;14.66;65.42;99186.22;4955806;28;20071;-67
2023/10/01 04:36:50;;;;;;;0.20;0.20;;;;;;;14.74;65.26;99181.91;4957530;28;20154;-68
2023/10/01 04:39:17;;;;;;;0.20;0.20;;;;;;;14.78;64.95;99190.34;4960725;28;20529;-70
2023/10/01 04:41:45;;;;;;;0.20;0.20;;;;;;;14.83;65.41;99188.28;4954659;28;20137;-70
2023/10/01 04:44:19;;;;;;;0.20;0.20;;;;;;;14.89;64.68;99175.16;4962108;28;20549;-69
2023/10/01 04:46:47;;;;;;;0.25;0.25;;;;;;;14.96;64.09;99182.94;4953209;28;20523;-70
2023/10/01 04:49:39;;;;;;;0.20;0.20;;;;;;;15.15;64.31;99180.75;4950591;28;20125;-68
2023/10/01 04:52:10;;;;;;;0.20;0.20;;;;;;;15.29;63.28;99182.53;4950009;28;20466;-69
2023/10/01 04:54:37;;;;;;;0.20;0.20;;;;;;;15.36;63.05;99180.13;4958414;28;20062;-70
2023/10/01 04:57:03;;;;;;;0.20;0.20;;;;;;;15.35;62.27;99185.94;4962694;28;20541;-68
2023/10/01 04:59:31;;;;;;;0.20;0.20;;;;;;;15.36;62.55;99182.06;4963934;28;20047;-69
2023/10/01 05:02:18;;;;;;;0.20;0.20;;;;;;;15.43;62.27;99190.66;4954204;28;20043;-69
2023/10/01 05:04:44;;;;;;;0.20;0.20;;;;;;;15.49;62.18;99194.09;4951345;28;20054;-68
2023/10/01 05:07:14;;;;;;;0.20;0.20;;;;;;;15.44;61.55;99195.03;4952435;28;20054;-70
2023/10/01 05:09:43;;;;;;;0.28;0.28;;;;;;;15.43;61.69;99182.41;4951120;28;20070;-70
2023/10/01 05:12:11;;;;;;;0.20;0.20;;;;;;;15.54;61.74;99183.72;4941257;28;20074;-70
2023/10/01 05:14:56;;;;;;;0.20;0.20;;;;;;;15.67;61.45;99192.97;4947193;28;20525;-68
2023/10/01 05:17:25;;;;;;;0.30;0.30;;;;;;;15.69;60.81;99198.16;4948797;28;20058;-69
2023/10/01 05:19:52;;;;;;;0.20;0.20;;;;;;;15.62;61.19;99190.38;4940819;28;20071;-70
2023/10/01 05:22:18;;;;;;;0.20;0.20;;;;;;;15.56;61.44;99184.19;4952559;28;20657;-70
2023/10/01 05:24:48;;;;;;;0.20;0.20;;;;;;;15.32;61.72;99159.88;4951330;28;20137;-69
2023/10/01 05:27:22;;;;;;;0.20;0.20;;;;;;;15.41;62.75;99185.47;4951591;28;20054;-68
2023/10/01 05:29:49;;;;;;;0.20;0.20;;;;;;;15.41;62.85;99185.47;4947294;28;20279;-69
2023/10/01 05:32:19;;;;;;;0.20;0.20;;;;;;;15.30;63.41;99175.91;4948565;28;20059;-69
2023/10/01 05:34:46;;;;;;;0.20;0.20;;;;;;;15.15;63.86;99153.22;4949198;28;20043;-70
2023/10/01 05:37:24;;;;;;;0.20;0.20;;;;;;;15.27;64.04;99191.13;4951382;28;20388;-70
2023/10/01 05:39:55;;;;;;;0.20;0.20;;;;;;;15.18;64.43;99193.06;4961840;28;20050;-70
2023/10/01 05:42:23;;;;;;;0.22;0.22;;;;;;;15.07;65.53;99195.28;4941782;28;20496;-68
2023/10/01 05:44:50;;;;;;;0.20;0.20;;;;;;;14.97;66.70;99179.88;4953230;28;20047;-70
2023/10/01 05:47:17;;;;;;;0.20;0.20;;;;;;;14.86;67.27;99182.13;4947383;28;20138;-70
2023/10/01 05:49:49;;;;;;;0.30;0.20;;;;;;;14.81;67.15;99186.97;4958511;28;20057;-67
2023/10/01 05:52:17;;;;;;;0.20;0.20;;;;;;;14.71;67.89;99180.59;4954659;28;20407;-68
2023/10/01 05:54:52;;;;;;;;;;;;;;;14.70;67.99;99178.16;4958872;28;21315;-67
2023/10/01 05:57:21;;;;;;;0.20;0.20;;;;;;;14.70;67.70;99184.44;4956246;28;20027;-68
2023/10/01 05:59:56;;;;;;;0.10;0.10;;;;;;;14.63;69.05;99180.53;4948410;28;20050;-67
2023/10/01 06:02:41;;;;;;;0.10;0.10;;;;;;;14.55;69.29;99176.63;4956178;28;20047;-68
2023/10/01 06:05:25;;;;;;;0.20;0.20;;;;;;;14.51;70.47;99178.38;4959285;28;20674;-69
2023/10/01 06:07:55;;;;;;;0.20;0.20;;;;;;;14.58;70.49;99189.72;4948928;28;20047;-68
2023/10/01 06:10:28;;;;;;;0.20;0.20;;;;;;;14.59;70.98;99185.84;4956264;28;20047;-68
2023/10/01 06:12:56;;;;;;;0.20;0.20;;;;;;;14.65;71.24;99179.09;4965662;28;20046;-67
2023/10/01 06:15:29;;;;;;;0.20;0.20;;;;;;;14.58;71.71;99182.31;4951664;28;20066;-68
2023/10/01 06:18:00;;;;;;;0.20;0.20;;;;;;;14.55;71.88;99184.88;4950173;28;20043;-68
2023/10/01 06:20:27;;;;;;;0.20;0.20;;;;;;;14.50;72.48;99185.81;4952951;28;20055;-67
2023/10/01 06:22:59;;;;;;;0.20;0.20;;;;;;;14.47;72.98;99180.94;4955758;28;20073;-68
2023/10/01 06:25:40;;;;;;;0.20;0.20;;;;;;;14.43;73.34;99186.25;4954058;28;20043;-68
2023/10/01 06:28:09;;;;;;;0.20;0.20;;;;;;;14.42;73.24;99181.09;4954993;28;20461;-68
2023/10/01 06:30:39;;;;;;;0.20;0.20;;;;;;;14.41;73.79;99202.28;4953921;28;20054;-68
2023/10/01 06:33:09;;;;;;;0.20;0.20;;;;;;;14.31;74.37;99208.84;4956231;28;20573;-68
2023/10/01 06:35:56;;;;;;;0.20;0.20;;;;;;;14.18;75.55;99212.47;4953291;28;20053;-68
2023/10/01 06:38:24;;;;;;;0.20;0.20;;;;;;;14.09;76.41;99206.13;4941014;28;20070;-70
2023/10/01 06:40:51;;;;;;;0.20;0.20;;;;;;;13.93;77.39;99212.00;4957127;28;20039;-70
2023/10/01 06:43:17;;;;;;;0.20;0.20;;;;;;;13.84;78.21;99219.34;4958992;28;20051;-68
2023/10/01 06:45:44;;;;;;;0.10;0.10;;;;;;;13.84;78.37;99214.69;4953829;28;20078;-67
2023/10/01 06:48:14;;;;;;;0.25;0.25;;;;;;;13.75;79.14;99220.13;4950514;28;20106;-71
2023/10/01 06:50:43;;;;;;;0.20;0.20;;;;;;;13.78;79.78;99226.91;4950494;28;20541;-68
2023/10/01 06:53:10;;;;;;;0.10;0.10;;;;;;;13.81;79.74;99220.78;4953233;28;20058;-68
2023/10/01 06:55:38;;;;;;;0.20;0.20;;;;;;;13.81;79.81;99230.97;4955461;28;20454;-70
2023/10/01 06:58:07;;;;;;;0.20;0.20;;;;;;;13.73;80.35;99229.78;4964754;28;20051;-68
2023/10/01 07:00:35;;;;;;;0.10;0.10;;;;;;;13.72;80.67;99233.66;4945298;28;20071;-69
2023/10/01 07:03:19;;;;;;;0.20;0.20;;;;;;;13.78;80.76;99234.34;4962442;28;20051;-69
2023/10/01 07:05:51;;;;;;;0.20;0.20;;;;;;;13.82;80.65;99232.59;4958524;28;20074;-69
2023/10/01 07:08:21;;;;;;;0.20;0.20;;;;;;;13.79;81.13;99233.22;4946251;28;20561;-68
2023/10/01 07:10:50;;;;;;;0.20;0.20;;;;;;;13.71;81.72;99232.81;4954902;28;20058;-68
2023/10/01 07:13:17;;;;;;;0.15;0.15;;;;;;;13.66;81.86;99226.63;4959191;28;20053;-70
2023/10/01 07:15:44;;;;;;;0.20;0.20;;;;;;;13.67;82.28;99231.03;4958520;28;20061;-69
2023/10/01 07:18:19;;;;;;;0.10;0.10;;;;;;;13.70;82.73;99231.19;4963938;28;20805;-69
2023/10/01 07:20:49;;;;;;;0.20;0.20;;;;;;;13.85;82.17;99245.72;4939962;28;20061;-69
2023/10/01 07:23:21;;;;;;;0.10;0.10;;;;;;;13.85;81.97;99237.47;4949866;28;20573;-70
2023/10/01 07:25:49;;;;;;;0.20;0.20;;;;;;;13.90;82.33;99251.09;4971877;28;20051;-70
2023/10/01 07:28:18;;;;;;;0.10;0.10;;;;;;;13.84;82.34;99252.31;4952690;28;20077;-70
2023/10/01 07:30:46;;;;;;;0.10;0.10;;;;;;;13.69;82.51;99235.06;4960593;28;20078;-67
2023/10/01 07:33:14;;;;;;;;;;;;;;;13.62;83.60;99256.66;4953109;28;20126;-67
2023/10/01 07:35:44;;;;;;;0.20;0.20;;;;;;;13.56;84.13;99253.22;4959675;28;19969;-67
2023/10/01 07:38:12;;;;;;;0.10;0.10;;;;;;;13.47;84.67;99252.31;4971295;28;20054;-68
2023/10/01 07:43:25;;;;;;;0.10;0.10;;;;;;;13.50;86.09;99256.38;4958066;28;20047;-69
2023/10/01 07:45:58;;;;;;;0.10;0.10;;;;;;;13.52;85.72;99254.13;4960512;28;20071;-69
2023/10/01 07:48:27;;;;;;;0.10;0.10;;;;;;;13.59;85.83;99262.78;4952750;28;20074;-67
2023/10/01 07:50:55;;;;;;;0.10;0.10;;;;;;;13.60;85.40;99262.47;4960634;28;20047;-67
2023/10/01 07:53:32;;;;;;;0.20;0.20;;;;;;;13.66;85.38;99262.34;4969668;28;20059;-67
2023/10/01 07:56:01;;;;;;;0.10;0.10;;;;;;;13.62;85.06;99256.66;4924218;29;20376;-71
2023/10/01 07:58:45;;;;;;;0.10;0.10;;;;;;;13.63;85.16;99272.03;4958805;28;20051;-70
2023/10/01 08:03:57;;;;;;;0.20;0.20;;;;;;;13.67;85.56;99272.22;4950876;28;20047;-70
2023/10/01 08:06:34;;;;;;;0.10;0.10;;;;;;;13.63;85.71;99271.19;4950931;28;20059;-67
2023/10/01 08:09:05;;;;;;;0.10;0.10;;;;;;;13.60;85.25;99278.94;4951823;28;20078;-68
2023/10/01 08:14:20;;;;;;;0.20;0.20;;;;;;;13.65;85.49;99272.53;4950300;28;20467;-66
2023/10/01 08:16:50;;;;;;;0.10;0.10;;;;;;;13.65;84.82;99278.03;4937257;28;20422;-67
2023/10/01 08:19:23;;;;;;;0.10;0.10;;;;;;;13.45;84.86;99246.31;4955818;28;20065;-68
2023/10/01 08:21:53;;;;;;;0.10;0.10;;;;;;;13.65;84.87;99277.19;4959229;28;20058;-71
2023/10/01 08:24:20;;;;;;;0.20;0.20;;;;;;;13.59;84.13;99273.78;4960887;28;20055;-69
2023/10/01 08:27:12;;;;;;;0.20;0.20;;;;;;;13.84;82.87;99286.13;4969429;28;20441;-71
2023/10/01 08:32:38;;;;;;;0.20;0.20;;;;;;;13.86;81.44;99292.13;4957062;28;20055;-70
2023/10/01 08:35:22;;;;;;;0.17;0.17;;;;;;;13.94;81.31;99293.31;4958300;28;20043;-71
2023/10/01 08:37:59;;;;;;;0.20;0.20;;;;;;;13.97;80.27;99303.69;4962133;28;20474;-70
2023/10/01 08:40:27;;;;;;;0.10;0.10;;;;;;;13.92;80.72;99292.00;4951491;28;20203;-70
2023/10/01 08:42:58;;;;;;;0.10;0.10;;;;;;;13.95;80.32;99294.13;4938426;28;20067;-71
2023/10/01 08:45:37;;;;;;;0.20;0.20;;;;;;;13.86;80.96;99285.81;4948749;28;20157;-70
2023/10/01 08:48:06;;;;;;;0.20;0.20;;;;;;;13.90;80.76;99290.38;4951908;28;20051;-68
2023/10/01 08:50:36;;;;;;;0.10;0.10;;;;;;;14.02;80.35;99298.06;4953717;28;20075;-68
2023/10/01 08:53:12;;;;;;;0.10;0.10;;;;;;;14.13;79.70;99287.66;4946055;28;20063;-68
2023/10/01 08:58:15;;;;;;;0.20;0.20;;;;;;;14.31;77.69;99301.53;4957511;28;20062;-68
2023/10/01 09:00:49;;;;;;;0.20;0.20;;;;;;;14.23;77.12;99288.53;4957837;28;20052;-68
2023/10/01 09:03:29;;;;;;;0.20;0.20;;;;;;;14.33;75.89;99297.34;4963050;28;20051;-71
2023/10/01 09:06:04;;;;;;;0.20;0.20;;;;;;;14.37;75.64;99307.75;4956003;28;20422;-69
2023/10/01 09:08:32;;;;;;;0.20;0.20;;;;;;;14.44;74.78;99305.34;4951478;28;20524;-69
2023/10/01 09:11:17;;;;;;;;;;;;;;;14.53;74.36;99305.41;4952099;28;20039;-69
2023/10/01 09:13:58;;;;;;;0.20;0.20;;;;;;;14.54;72.82;99307.03;4958998;28;19986;-71
2023/10/01 09:16:32;;;;;;;0.20;0.20;;;;;;;14.52;73.01;99310.13;4952494;28;20540;-71
2023/10/01 09:19:42;;;;;;;0.20;0.20;;;;;;;14.58;72.86;99297.03;4949993;28;20422;-71
2023/10/01 09:21:49;;;;;;;0.20;0.20;;;;;;;14.79;72.44;99307.56;4952899;28;20625;-71
2023/10/01 09:24:34;;;;;;;0.20;0.20;;;;;;;15.00;72.27;99296.81;4929223;28;20185;-69
2023/10/01 09:27:09;;;;;;;0.20;0.20;;;;;;;15.29;70.88;99306.47;4949514;28;20043;-70
2023/10/01 09:29:45;;;;;;;0.30;0.30;;;;;;;15.60;69.29;99308.34;4962199;28;20043;-70
2023/10/01 09:32:13;;;;;;;0.30;0.30;;;;;;;15.82;68.61;99318.44;4954412;28;20070;-70
2023/10/01 09:34:47;;;;;;;0.20;0.20;;;;;;;16.17;67.54;99323.19;4608724;28;10000341;-70
2023/10/01 09:37:33;;;;;;;0.50;0.50;;;;;;;16.61;64.96;99328.69;4961424;28;20039;-70
2023/10/01 09:40:04;;;;;;;0.38;0.38;;;;;;;17.39;63.57;99320.50;4947472;28;20059;-70
2023/10/01 09:42:45;;;;;;;0.20;0.20;;;;;;;17.82;61.11;99332.50;4947931;28;20058;-70
2023/10/01 09:45:26;;;;;;;0.20;0.20;;;;;;;17.24;60.84;99328.22;4943905;28;20066;-70
2023/10/01 09:48:03;;;;;;;0.30;0.30;;;;;;;16.52;64.25;99336.97;4953704;28;20043;-69
2023/10/01 09:50:31;;;;;;;;;;;;;;;16.69;64.05;99327.06;4953673;28;20044;-69
2023/10/01 09:53:00;;;;;;;0.30;0.30;;;;;;;16.87;63.56;99331.41;4943790;28;20064;-68
2023/10/01 09:55:29;;;;;;;0.30;0.30;;;;;;;16.83;62.07;99335.94;4934228;28;20069;-68
2023/10/01 09:57:56;;;;;;;0.20;0.20;;;;;;;16.69;61.46;99343.59;4945346;28;20434;-69
2023/10/01 10:00:39;;;;;;;0.30;0.30;;;;;;;16.48;61.44;99335.22;4958536;28;20470;-68
2023/10/01 10:03:12;;;;;;;0.30;0.30;;;;;;;16.52;61.08;99333.41;4949739;28;20051;-68
2023/10/01 10:05:42;;;;;;;0.40;0.40;;;;;;;16.79;60.02;99342.47;4950622;28;20049;-70
2023/10/01 10:08:15;;;;;;;0.30;0.30;;;;;;;17.62;57.11;99345.91;4944863;28;20391;-68
2023/10/01 10:10:48;;;;;;;0.30;0.30;;;;;;;18.16;54.59;99347.25;4949318;28;20182;-70
2023/10/01 10:13:57;;;;;;;0.30;0.30;;;;;;;17.72;56.05;99342.00;4958415;28;20042;-70
2023/10/01 10:16:32;;;;;;;0.30;0.30;;;;;;;18.54;53.47;99337.97;4953924;28;20055;-68
2023/10/01 10:19:20;;;;;;;0.30;0.30;;;;;;;18.74;52.31;99349.38;4950377;28;20051;-68
2023/10/01 10:22:25;;;;;;;0.40;0.40;;;;;;;19.34;50.94;99349.03;4946595;28;20051;-68
2023/10/01 10:25:22;;;;;;;0.30;0.30;;;;;;;20.55;47.46;99352.34;4954931;28;20042;-69
2023/10/01 10:27:48;;;;;;;;;;;;;;;20.00;48.59;99349.16;4950326;28;20053;-68
2023/10/01 10:30:15;;;;;;;0.20;0.20;;;;;;;20.89;47.20;99349.34;4948224;28;19927;-69
2023/10/01 10:33:39;;;;;;;0.30;0.30;;;;;;;20.65;46.97;99353.81;4957984;28;20666;-69
2023/10/01 10:36:51;;;;;;;0.20;0.20;;;;;;;19.84;48.58;99351.81;4958476;28;20059;-68
2023/10/01 10:43:16;;;;;;;0.50;0.50;;;;;;;19.56;48.60;99358.88;4962916;28;20047;-68
2023/10/01 10:46:04;;;;;;;0.60;0.60;;;;;;;19.75;45.98;99349.19;4944951;28;20154;-68
2023/10/01 10:48:57;;;;;;;0.60;0.60;;;;;;;20.04;45.91;99350.06;4947734;28;20047;-68
2023/10/01 10:51:45;;;;;;;1.45;1.35;;;;;;;21.71;42.74;99353.78;4959786;28;20085;-68
2023/10/01 10:54:16;;;;;;;0.60;0.60;;;;;;;23.23;40.06;99345.72;4953603;28;20609;-68
2023/10/01 10:56:44;;;;;;;0.70;0.70;;;;;;;23.78;37.85;99355.78;4950389;28;20048;-69
2023/10/01 10:59:15;;;;;;;0.80;0.80;;;;;;;24.84;36.75;99344.81;4945252;28;20392;-68
2023/10/01 11:01:44;;;;;;;0.70;0.70;;;;;;;25.59;34.92;99343.91;4956477;28;20047;-69
2023/10/01 11:04:12;;;;;;;0.90;0.90;;;;;;;26.00;34.18;99351.41;4953792;28;20454;-70
2023/10/01 11:07:01;;;;;;;0.80;0.80;;;;;;;26.17;33.58;99347.09;4956065;28;20047;-69
2023/10/01 11:09:30;;;;;;;0.90;0.90;;;;;;;25.60;34.22;99350.31;4938566;28;20057;-70
2023/10/01 11:12:05;;;;;;;0.30;0.30;;;;;;;25.56;34.16;99350.28;4955945;28;20474;-70
2023/10/01 11:14:34;;;;;;;0.63;0.63;;;;;;;24.24;36.66;99351.28;4956717;28;20054;-71
2023/10/01 11:17:00;;;;;;;0.30;0.30;;;;;;;23.28;37.84;99358.56;4968508;28;20051;-70
2023/10/01 11:19:28;;;;;;;0.30;0.30;;;;;;;21.65;40.80;99344.88;4953623;28;20085;-71
2023/10/01 11:21:58;;;;;;;0.40;0.40;;;;;;;21.09;42.68;99347.50;4948609;28;20391;-70
2023/10/01 11:24:29;;;;;;;1.00;1.00;;;;;;;22.32;40.62;99346.78;4945195;28;20058;-70
2023/10/01 11:27:19;;;;;;;0.90;0.90;;;;;;;24.11;36.78;99308.81;4948780;28;20050;-69
2023/10/01 11:30:12;;;;;;;0.90;0.90;;;;;;;26.13;33.94;99332.25;4946512;28;20051;-70
2023/10/01 11:35:38;;;;;;;1.00;1.00;;;;;;;26.07;33.39;99344.22;4960018;28;20094;-68
2023/10/01 11:38:09;;;;;;;0.80;0.80;;;;;;;25.96;33.03;99344.16;4949039;28;20074;-69
2023/10/01 11:43:32;;;;;;;0.30;0.30;;;;;;;23.75;36.21;99348.19;4955708;28;20057;-69
2023/10/01 11:46:23;;;;;;;0.30;0.30;;;;;;;21.28;40.84;99351.53;4964208;28;20040;-69
2023/10/01 11:49:32;;;;;;;0.20;0.20;;;;;;;19.94;43.60;99351.34;4960499;28;20401;-69
2023/10/01 11:51:47;;;;;;;0.20;0.20;;;;;;;19.03;46.05;99352.34;4955786;28;20047;-69
2023/10/01 11:54:15;;;;;;;0.20;0.20;;;;;;;18.47;47.70;99348.78;4948435;28;20149;-68
2023/10/01 11:56:44;;;;;;;0.20;0.20;;;;;;;18.00;49.27;99369.94;4950388;28;20062;-68
2023/10/01 11:59:22;;;;;;;0.30;0.30;;;;;;;17.56;51.02;99358.31;4959964;28;20113;-68
2023/10/01 12:01:52;;;;;;;0.20;0.20;;;;;;;17.35;51.77;99369.31;4950523;28;20050;-69
2023/10/01 12:07:15;;;;;;;;;;;;;;;17.17;53.37;99358.31;4960211;28;20286;-69
2023/10/01 12:09:48;;;;;;;0.20;0.20;;;;;;;17.24;52.20;99358.59;4948234;28;19937;-69
2023/10/01 12:12:16;;;;;;;0.20;0.20;;;;;;;17.12;52.47;99352.97;4958431;28;20133;-69
2023/10/01 12:17:31;;;;;;;0.20;0.20;;;;;;;16.77;54.23;99356.59;4950713;28;20078;-69
2023/10/01 12:19:59;;;;;;;0.20;0.20;;;;;;;16.58;54.74;99360.53;4945993;28;20078;-69
2023/10/01 12:22:28;;;;;;;0.20;0.20;;;;;;;16.53;55.70;99357.91;4952094;28;20058;-69
2023/10/01 12:24:59;;;;;;;0.25;0.25;;;;;;;16.69;55.25;99362.94;4956383;28;20047;-70
2023/10/01 12:27:45;;;;;;;0.20;0.20;;;;;;;16.75;53.95;99360.81;4941775;28;20043;-70
2023/10/01 12:30:28;;;;;;;0.20;0.20;;;;;;;16.71;52.45;99360.69;4959662;28;20658;-70
2023/10/01 12:33:02;;;;;;;0.20;0.20;;;;;;;16.76;52.17;99374.31;4960977;28;20094;-69
2023/10/01 12:35:28;;;;;;;0.40;0.40;;;;;;;17.00;50.88;99367.44;4954523;28;20078;-70
2023/10/01 12:40:41;;;;;;;0.30;0.30;;;;;;;17.44;47.69;99367.31;4956081;28;20206;-69
2023/10/01 12:45:52;;;;;;;0.50;0.50;;;;;;;17.71;47.24;99373.50;4955945;28;20462;-70
2023/10/01 12:48:20;;;;;;;0.50;0.50;;;;;;;18.79;44.21;99370.47;4953967;28;20047;-69
2023/10/01 12:51:00;;;;;;;0.60;0.60;;;;;;;19.58;42.10;99369.63;4956219;28;20067;-69
2023/10/01 12:53:26;;;;;;;0.40;0.40;;;;;;;20.09;40.95;99376.78;4956296;28;20049;-69
2023/10/01 12:55:53;;;;;;;0.30;0.30;;;;;;;19.45;42.21;99388.22;4954104;28;20043;-70